Orbital elements of FENGYUN 1C DEB
| Launched | 9 May 1999 |
| Flight ended | – |
| Launch site | Taiyuan Space Center, PRC |
| Owner | People's Republic of China |
| NORAD ID | 30139 |
| Date fetched |
Epoch osculation |
Inc. [°] |
Ecc. | RA asc node [hr] |
Arg Peri. [°] |
Mean anom [°] |
Mean motion [rev/day] |
Abs. mag |
| Date fetched |
Epoch osculation |
Inc. [°] |
Ecc. | RA asc node [hr] |
Arg Peri. [°] |
Mean anom [°] |
Mean motion [rev/day] |
Abs. mag |
| 2026 May 07 17:58 | 2026 May 04 12:03:28 | 98.3609 | 0.01288 | 21.4559 | 245.2402 | 143.2863 | 14.04195 | – |
| 2026 May 06 17:57 | 2026 May 04 12:03:28 | 98.3609 | 0.01288 | 21.4559 | 245.2402 | 143.2863 | 14.04195 | – |
| 2026 May 05 17:57 | 2026 May 04 12:03:28 | 98.3609 | 0.01288 | 21.4559 | 245.2402 | 143.2863 | 14.04195 | – |
| 2026 May 04 17:57 | 2026 Apr 30 12:17:09 | 98.3613 | 0.01286 | 21.2109 | 256.6720 | 143.2863 | 14.04195 | – |
| 2026 May 03 17:57 | 2026 Apr 30 12:17:09 | 98.3613 | 0.01286 | 21.2109 | 256.6720 | 143.2863 | 14.04195 | – |
| 2026 May 02 17:57 | 2026 Apr 30 12:17:09 | 98.3613 | 0.01286 | 21.2109 | 256.6720 | 143.2863 | 14.04195 | – |
| 2026 May 01 17:56 | 2026 Apr 30 12:17:09 | 98.3613 | 0.01286 | 21.2109 | 256.6720 | 143.2863 | 14.04195 | – |
| 2026 Apr 30 17:56 | 2026 Apr 30 12:17:09 | 98.3613 | 0.01286 | 21.2109 | 256.6720 | 143.2863 | 14.04195 | – |
| 2026 Apr 29 17:57 | 2026 Apr 24 12:45:55 | 98.3623 | 0.01288 | 20.8437 | 273.8614 | 143.2863 | 14.04195 | – |
| 2026 Apr 28 17:56 | 2026 Apr 24 12:45:55 | 98.3623 | 0.01288 | 20.8437 | 273.8614 | 143.2863 | 14.04195 | – |
| 2026 Apr 27 17:58 | 2026 Apr 24 12:45:55 | 98.3623 | 0.01288 | 20.8437 | 273.8614 | 143.2863 | 14.04195 | – |
| 2026 Apr 26 17:58 | 2026 Apr 24 12:45:55 | 98.3623 | 0.01288 | 20.8437 | 273.8614 | 143.2863 | 14.04195 | – |
| 2026 Apr 25 17:58 | 2026 Apr 24 12:45:55 | 98.3623 | 0.01288 | 20.8437 | 273.8614 | 143.2863 | 14.04195 | – |
| 2026 Apr 24 17:59 | 2026 Apr 24 12:45:55 | 98.3623 | 0.01288 | 20.8437 | 273.8614 | 143.2863 | 14.04195 | – |
| 2026 Apr 23 17:57 | 2026 Apr 17 13:12:16 | 98.3624 | 0.01292 | 20.4149 | 293.7877 | 143.2863 | 14.04195 | – |
| 2026 Apr 22 17:57 | 2026 Apr 17 13:12:16 | 98.3624 | 0.01292 | 20.4149 | 293.7877 | 143.2863 | 14.04195 | – |
| 2026 Apr 21 17:57 | 2026 Apr 17 13:12:16 | 98.3624 | 0.01292 | 20.4149 | 293.7877 | 143.2863 | 14.04195 | – |
| 2026 Apr 20 17:57 | 2026 Apr 17 13:12:16 | 98.3624 | 0.01292 | 20.4149 | 293.7877 | 143.2863 | 14.04195 | – |
| 2026 Apr 19 17:58 | 2026 Apr 17 13:12:16 | 98.3624 | 0.01292 | 20.4149 | 293.7877 | 143.2863 | 14.04195 | – |
| 2026 Apr 18 17:56 | 2026 Apr 12 00:18:01 | 98.3632 | 0.01295 | 20.0748 | 309.5105 | 143.2863 | 14.04195 | – |
| 2026 Apr 16 17:57 | 2026 Apr 12 00:18:01 | 98.3632 | 0.01295 | 20.0748 | 309.5105 | 143.2863 | 14.04195 | – |
| 2026 Apr 14 17:57 | 2026 Apr 12 00:18:01 | 98.3632 | 0.01295 | 20.0748 | 309.5105 | 143.2863 | 14.04195 | – |
| 2026 Apr 13 17:57 | 2026 Apr 12 00:18:01 | 98.3632 | 0.01295 | 20.0748 | 309.5105 | 143.2863 | 14.04195 | – |
| 2026 Apr 12 17:57 | 2026 Apr 08 00:28:18 | 98.3629 | 0.01297 | 19.8296 | 320.9074 | 143.2863 | 14.04195 | – |
| 2026 Apr 11 17:57 | 2026 Apr 08 00:28:18 | 98.3629 | 0.01297 | 19.8296 | 320.9074 | 143.2863 | 14.04195 | – |
| 2026 Apr 10 17:58 | 2026 Apr 08 00:28:18 | 98.3629 | 0.01297 | 19.8296 | 320.9074 | 143.2863 | 14.04195 | – |